sensor_id;sensor_type;location;lat;lon;timestamp;temperature;humidity
40676;DHT22;26359;48.750;9.314;2024-03-22T00:01:45;9.80;99.90
40676;DHT22;26359;48.750;9.314;2024-03-22T00:04:14;9.70;99.90
40676;DHT22;26359;48.750;9.314;2024-03-22T00:06:43;9.70;99.90
40676;DHT22;26359;48.750;9.314;2024-03-22T00:09:10;9.70;99.90
40676;DHT22;26359;48.750;9.314;2024-03-22T00:11:36;9.60;99.90
40676;DHT22;26359;48.750;9.314;2024-03-22T00:14:02;9.60;99.90
40676;DHT22;26359;48.750;9.314;2024-03-22T00:16:28;9.60;99.90
40676;DHT22;26359;48.750;9.314;2024-03-22T00:18:54;9.60;99.90
40676;DHT22;26359;48.750;9.314;2024-03-22T00:21:20;9.50;99.90
40676;DHT22;26359;48.750;9.314;2024-03-22T00:23:46;9.50;99.90
40676;DHT22;26359;48.750;9.314;2024-03-22T00:26:12;9.50;99.90
40676;DHT22;26359;48.750;9.314;2024-03-22T00:28:37;9.40;99.90
40676;DHT22;26359;48.750;9.314;2024-03-22T00:31:03;9.40;99.90
40676;DHT22;26359;48.750;9.314;2024-03-22T00:33:28;9.40;99.90
40676;DHT22;26359;48.750;9.314;2024-03-22T00:35:54;9.30;99.90
40676;DHT22;26359;48.750;9.314;2024-03-22T00:38:20;9.40;99.90
40676;DHT22;26359;48.750;9.314;2024-03-22T00:40:45;9.30;99.90
40676;DHT22;26359;48.750;9.314;2024-03-22T00:43:11;9.20;99.90
40676;DHT22;26359;48.750;9.314;2024-03-22T00:45:36;9.20;99.90
40676;DHT22;26359;48.750;9.314;2024-03-22T00:48:02;9.20;99.90
40676;DHT22;26359;48.750;9.314;2024-03-22T00:50:27;9.20;99.90
40676;DHT22;26359;48.750;9.314;2024-03-22T00:52:54;9.10;99.90
40676;DHT22;26359;48.750;9.314;2024-03-22T00:55:22;9.00;99.90
40676;DHT22;26359;48.750;9.314;2024-03-22T00:57:47;9.00;99.90
40676;DHT22;26359;48.750;9.314;2024-03-22T01:00:13;9.00;99.90
40676;DHT22;26359;48.750;9.314;2024-03-22T01:02:39;9.00;99.90
40676;DHT22;26359;48.750;9.314;2024-03-22T01:05:05;9.00;99.90
40676;DHT22;26359;48.750;9.314;2024-03-22T01:07:31;9.00;99.90
40676;DHT22;26359;48.750;9.314;2024-03-22T01:09:56;9.00;99.90
40676;DHT22;26359;48.750;9.314;2024-03-22T01:12:22;9.00;99.90
40676;DHT22;26359;48.750;9.314;2024-03-22T01:14:47;8.90;99.90
40676;DHT22;26359;48.750;9.314;2024-03-22T01:17:13;8.90;99.90
40676;DHT22;26359;48.750;9.314;2024-03-22T01:19:39;8.90;99.90
40676;DHT22;26359;48.750;9.314;2024-03-22T01:22:04;8.90;99.90
40676;DHT22;26359;48.750;9.314;2024-03-22T01:24:30;8.90;99.90
40676;DHT22;26359;48.750;9.314;2024-03-22T01:26:55;8.90;99.90
40676;DHT22;26359;48.750;9.314;2024-03-22T01:29:21;8.70;99.90
40676;DHT22;26359;48.750;9.314;2024-03-22T01:31:47;8.70;99.90
40676;DHT22;26359;48.750;9.314;2024-03-22T01:34:13;8.70;99.90
40676;DHT22;26359;48.750;9.314;2024-03-22T01:36:39;8.70;99.90
40676;DHT22;26359;48.750;9.314;2024-03-22T01:39:04;8.70;99.90
40676;DHT22;26359;48.750;9.314;2024-03-22T01:41:30;8.70;99.90
40676;DHT22;26359;48.750;9.314;2024-03-22T01:43:56;8.70;99.90
40676;DHT22;26359;48.750;9.314;2024-03-22T01:46:21;8.80;99.90
40676;DHT22;26359;48.750;9.314;2024-03-22T01:48:47;8.80;99.90
40676;DHT22;26359;48.750;9.314;2024-03-22T01:51:12;8.70;99.90
40676;DHT22;26359;48.750;9.314;2024-03-22T01:53:38;8.70;99.90
40676;DHT22;26359;48.750;9.314;2024-03-22T01:56:04;8.70;99.90
40676;DHT22;26359;48.750;9.314;2024-03-22T01:58:31;8.70;99.90
40676;DHT22;26359;48.750;9.314;2024-03-22T02:00:56;8.70;99.90
40676;DHT22;26359;48.750;9.314;2024-03-22T02:03:22;8.60;99.90
40676;DHT22;26359;48.750;9.314;2024-03-22T02:05:47;8.70;99.90
40676;DHT22;26359;48.750;9.314;2024-03-22T02:08:13;8.60;99.90
40676;DHT22;26359;48.750;9.314;2024-03-22T02:10:38;8.50;99.90
40676;DHT22;26359;48.750;9.314;2024-03-22T02:13:04;8.60;99.90
40676;DHT22;26359;48.750;9.314;2024-03-22T02:15:29;8.50;99.90
40676;DHT22;26359;48.750;9.314;2024-03-22T02:17:55;8.50;99.90
40676;DHT22;26359;48.750;9.314;2024-03-22T02:20:21;8.50;99.90
40676;DHT22;26359;48.750;9.314;2024-03-22T02:22:46;8.50;99.90
40676;DHT22;26359;48.750;9.314;2024-03-22T02:25:11;8.40;99.90
40676;DHT22;26359;48.750;9.314;2024-03-22T02:27:38;8.40;99.90
40676;DHT22;26359;48.750;9.314;2024-03-22T02:30:04;8.40;99.90
40676;DHT22;26359;48.750;9.314;2024-03-22T02:32:30;8.40;99.90
40676;DHT22;26359;48.750;9.314;2024-03-22T02:34:56;8.40;99.90
40676;DHT22;26359;48.750;9.314;2024-03-22T02:37:21;8.30;99.90
40676;DHT22;26359;48.750;9.314;2024-03-22T02:39:47;8.30;99.90
40676;DHT22;26359;48.750;9.314;2024-03-22T02:42:12;8.30;99.90
40676;DHT22;26359;48.750;9.314;2024-03-22T02:44:38;8.30;99.90
40676;DHT22;26359;48.750;9.314;2024-03-22T02:47:11;8.30;99.90
40676;DHT22;26359;48.750;9.314;2024-03-22T02:49:38;8.30;99.90
40676;DHT22;26359;48.750;9.314;2024-03-22T02:52:04;8.20;99.90
40676;DHT22;26359;48.750;9.314;2024-03-22T02:54:30;8.20;99.90
40676;DHT22;26359;48.750;9.314;2024-03-22T02:56:56;8.20;99.90
40676;DHT22;26359;48.750;9.314;2024-03-22T02:59:21;8.10;99.90
40676;DHT22;26359;48.750;9.314;2024-03-22T03:01:47;8.10;99.90
40676;DHT22;26359;48.750;9.314;2024-03-22T03:04:12;8.10;99.90
40676;DHT22;26359;48.750;9.314;2024-03-22T03:06:38;8.20;99.90
40676;DHT22;26359;48.750;9.314;2024-03-22T03:09:03;8.20;99.90
40676;DHT22;26359;48.750;9.314;2024-03-22T03:11:33;8.20;99.90
40676;DHT22;26359;48.750;9.314;2024-03-22T03:13:59;8.10;99.90
40676;DHT22;26359;48.750;9.314;2024-03-22T03:16:24;8.10;99.90
40676;DHT22;26359;48.750;9.314;2024-03-22T03:18:50;8.10;99.90
40676;DHT22;26359;48.750;9.314;2024-03-22T03:21:15;8.10;99.90
40676;DHT22;26359;48.750;9.314;2024-03-22T03:23:41;8.10;99.90
40676;DHT22;26359;48.750;9.314;2024-03-22T03:26:06;8.10;99.90
40676;DHT22;26359;48.750;9.314;2024-03-22T03:28:32;8.10;99.90
40676;DHT22;26359;48.750;9.314;2024-03-22T03:30:57;8.10;99.90
40676;DHT22;26359;48.750;9.314;2024-03-22T03:33:22;8.10;99.90
40676;DHT22;26359;48.750;9.314;2024-03-22T03:35:48;8.10;99.90
40676;DHT22;26359;48.750;9.314;2024-03-22T03:38:14;8.00;99.90
40676;DHT22;26359;48.750;9.314;2024-03-22T03:40:39;8.00;99.90
40676;DHT22;26359;48.750;9.314;2024-03-22T03:43:05;8.00;99.90
40676;DHT22;26359;48.750;9.314;2024-03-22T03:45:30;8.00;99.90
40676;DHT22;26359;48.750;9.314;2024-03-22T03:47:56;8.00;99.90
40676;DHT22;26359;48.750;9.314;2024-03-22T03:50:21;8.00;99.90
40676;DHT22;26359;48.750;9.314;2024-03-22T03:52:47;7.90;99.90
40676;DHT22;26359;48.750;9.314;2024-03-22T03:55:13;8.00;99.90
40676;DHT22;26359;48.750;9.314;2024-03-22T03:57:38;8.00;99.90
40676;DHT22;26359;48.750;9.314;2024-03-22T04:00:04;7.80;99.90
40676;DHT22;26359;48.750;9.314;2024-03-22T04:02:30;7.80;99.90
40676;DHT22;26359;48.750;9.314;2024-03-22T04:04:55;7.80;99.90
40676;DHT22;26359;48.750;9.314;2024-03-22T04:07:21;7.90;99.90
40676;DHT22;26359;48.750;9.314;2024-03-22T04:09:47;7.80;99.90
40676;DHT22;26359;48.750;9.314;2024-03-22T04:12:12;7.80;99.90
40676;DHT22;26359;48.750;9.314;2024-03-22T04:14:38;7.80;99.90
40676;DHT22;26359;48.750;9.314;2024-03-22T04:17:04;7.80;99.90
40676;DHT22;26359;48.750;9.314;2024-03-22T04:19:29;7.80;99.90
40676;DHT22;26359;48.750;9.314;2024-03-22T04:21:55;7.90;99.90
40676;DHT22;26359;48.750;9.314;2024-03-22T04:24:20;7.90;99.90
40676;DHT22;26359;48.750;9.314;2024-03-22T04:26:46;8.00;99.90
40676;DHT22;26359;48.750;9.314;2024-03-22T04:29:11;7.90;99.90
40676;DHT22;26359;48.750;9.314;2024-03-22T04:31:37;8.00;99.90
40676;DHT22;26359;48.750;9.314;2024-03-22T04:34:02;7.90;99.90
40676;DHT22;26359;48.750;9.314;2024-03-22T04:36:28;7.90;99.90
40676;DHT22;26359;48.750;9.314;2024-03-22T04:38:53;8.00;99.90
40676;DHT22;26359;48.750;9.314;2024-03-22T04:41:19;8.00;99.90
40676;DHT22;26359;48.750;9.314;2024-03-22T04:43:44;8.00;99.90
40676;DHT22;26359;48.750;9.314;2024-03-22T04:46:10;8.10;99.90
40676;DHT22;26359;48.750;9.314;2024-03-22T04:48:35;8.10;99.90
40676;DHT22;26359;48.750;9.314;2024-03-22T04:51:01;8.10;99.90
40676;DHT22;26359;48.750;9.314;2024-03-22T04:53:27;8.20;99.90
40676;DHT22;26359;48.750;9.314;2024-03-22T04:55:52;8.30;99.90
40676;DHT22;26359;48.750;9.314;2024-03-22T04:58:19;8.20;99.90
40676;DHT22;26359;48.750;9.314;2024-03-22T05:00:45;8.10;99.90
40676;DHT22;26359;48.750;9.314;2024-03-22T05:03:12;8.10;99.90
40676;DHT22;26359;48.750;9.314;2024-03-22T05:05:41;8.10;99.90
40676;DHT22;26359;48.750;9.314;2024-03-22T05:08:07;8.10;99.90
40676;DHT22;26359;48.750;9.314;2024-03-22T05:10:34;8.10;99.90
40676;DHT22;26359;48.750;9.314;2024-03-22T05:12:59;8.10;99.90
40676;DHT22;26359;48.750;9.314;2024-03-22T05:15:25;8.10;99.90
40676;DHT22;26359;48.750;9.314;2024-03-22T05:17:52;8.10;99.90
40676;DHT22;26359;48.750;9.314;2024-03-22T05:20:18;8.10;99.90
40676;DHT22;26359;48.750;9.314;2024-03-22T05:22:44;8.00;99.90
40676;DHT22;26359;48.750;9.314;2024-03-22T05:25:09;8.00;99.90
40676;DHT22;26359;48.750;9.314;2024-03-22T05:27:36;8.00;99.90
40676;DHT22;26359;48.750;9.314;2024-03-22T05:30:02;7.90;99.90
40676;DHT22;26359;48.750;9.314;2024-03-22T05:32:29;7.90;99.90
40676;DHT22;26359;48.750;9.314;2024-03-22T05:34:55;7.90;99.90
40676;DHT22;26359;48.750;9.314;2024-03-22T05:37:20;7.90;99.90
40676;DHT22;26359;48.750;9.314;2024-03-22T05:39:46;8.00;99.90
40676;DHT22;26359;48.750;9.314;2024-03-22T05:42:11;8.00;99.90
40676;DHT22;26359;48.750;9.314;2024-03-22T05:44:37;8.00;99.90
40676;DHT22;26359;48.750;9.314;2024-03-22T05:47:02;8.00;99.90
40676;DHT22;26359;48.750;9.314;2024-03-22T05:49:28;8.00;99.90
40676;DHT22;26359;48.750;9.314;2024-03-22T05:51:54;8.00;99.90
40676;DHT22;26359;48.750;9.314;2024-03-22T05:54:20;8.00;99.90
40676;DHT22;26359;48.750;9.314;2024-03-22T05:56:46;7.90;99.90
40676;DHT22;26359;48.750;9.314;2024-03-22T05:59:11;7.90;99.90
40676;DHT22;26359;48.750;9.314;2024-03-22T06:01:37;7.90;99.90
40676;DHT22;26359;48.750;9.314;2024-03-22T06:04:04;8.00;99.90
40676;DHT22;26359;48.750;9.314;2024-03-22T06:06:30;8.00;99.90
40676;DHT22;26359;48.750;9.314;2024-03-22T06:08:55;8.00;99.90
40676;DHT22;26359;48.750;9.314;2024-03-22T06:11:22;7.90;99.90
40676;DHT22;26359;48.750;9.314;2024-03-22T06:13:48;7.90;99.90
40676;DHT22;26359;48.750;9.314;2024-03-22T06:16:13;7.80;99.90
40676;DHT22;26359;48.750;9.314;2024-03-22T06:18:39;7.90;99.90
40676;DHT22;26359;48.750;9.314;2024-03-22T06:21:06;7.90;99.90
40676;DHT22;26359;48.750;9.314;2024-03-22T06:23:32;7.90;99.90
40676;DHT22;26359;48.750;9.314;2024-03-22T06:25:58;7.90;99.90
40676;DHT22;26359;48.750;9.314;2024-03-22T06:28:25;7.90;99.90
40676;DHT22;26359;48.750;9.314;2024-03-22T06:30:50;7.90;99.90
40676;DHT22;26359;48.750;9.314;2024-03-22T06:33:16;8.00;99.90
40676;DHT22;26359;48.750;9.314;2024-03-22T06:35:41;8.00;99.90
40676;DHT22;26359;48.750;9.314;2024-03-22T06:38:07;8.00;99.90
40676;DHT22;26359;48.750;9.314;2024-03-22T06:40:33;8.00;99.90
40676;DHT22;26359;48.750;9.314;2024-03-22T06:42:59;8.00;99.90
40676;DHT22;26359;48.750;9.314;2024-03-22T06:45:24;8.10;99.90
40676;DHT22;26359;48.750;9.314;2024-03-22T06:47:50;8.10;99.90
40676;DHT22;26359;48.750;9.314;2024-03-22T06:50:16;8.20;99.90
40676;DHT22;26359;48.750;9.314;2024-03-22T06:52:52;8.20;99.90
40676;DHT22;26359;48.750;9.314;2024-03-22T06:55:21;8.30;99.90
40676;DHT22;26359;48.750;9.314;2024-03-22T06:57:48;8.30;99.90
40676;DHT22;26359;48.750;9.314;2024-03-22T07:00:15;8.40;99.90
40676;DHT22;26359;48.750;9.314;2024-03-22T07:02:41;8.50;99.90
40676;DHT22;26359;48.750;9.314;2024-03-22T07:05:08;8.50;99.90
40676;DHT22;26359;48.750;9.314;2024-03-22T07:07:37;8.60;99.90
40676;DHT22;26359;48.750;9.314;2024-03-22T07:10:03;8.70;99.90
40676;DHT22;26359;48.750;9.314;2024-03-22T07:12:31;8.80;99.90
40676;DHT22;26359;48.750;9.314;2024-03-22T07:14:57;8.90;99.90
40676;DHT22;26359;48.750;9.314;2024-03-22T07:17:23;8.90;99.90
40676;DHT22;26359;48.750;9.314;2024-03-22T07:19:52;8.90;99.90
40676;DHT22;26359;48.750;9.314;2024-03-22T07:22:19;9.00;99.90
40676;DHT22;26359;48.750;9.314;2024-03-22T07:24:44;9.00;99.90
40676;DHT22;26359;48.750;9.314;2024-03-22T07:27:10;9.00;99.90
40676;DHT22;26359;48.750;9.314;2024-03-22T07:29:38;9.00;99.90
40676;DHT22;26359;48.750;9.314;2024-03-22T07:32:04;9.00;99.90
40676;DHT22;26359;48.750;9.314;2024-03-22T07:34:31;9.10;99.90
40676;DHT22;26359;48.750;9.314;2024-03-22T07:36:56;9.10;99.90
40676;DHT22;26359;48.750;9.314;2024-03-22T07:39:22;9.10;99.90
40676;DHT22;26359;48.750;9.314;2024-03-22T07:41:48;9.20;99.90
40676;DHT22;26359;48.750;9.314;2024-03-22T07:44:14;9.20;99.90
40676;DHT22;26359;48.750;9.314;2024-03-22T07:46:39;9.30;99.90
40676;DHT22;26359;48.750;9.314;2024-03-22T07:49:05;9.30;99.90
40676;DHT22;26359;48.750;9.314;2024-03-22T07:51:32;9.40;99.90
40676;DHT22;26359;48.750;9.314;2024-03-22T07:53:57;9.40;99.90
40676;DHT22;26359;48.750;9.314;2024-03-22T07:56:23;9.50;99.90
40676;DHT22;26359;48.750;9.314;2024-03-22T07:58:48;9.60;99.90
40676;DHT22;26359;48.750;9.314;2024-03-22T08:01:14;9.60;99.90
40676;DHT22;26359;48.750;9.314;2024-03-22T08:03:39;9.70;99.90
40676;DHT22;26359;48.750;9.314;2024-03-22T08:06:05;9.80;99.90
40676;DHT22;26359;48.750;9.314;2024-03-22T08:08:30;10.00;99.90
40676;DHT22;26359;48.750;9.314;2024-03-22T08:10:56;10.00;99.90
40676;DHT22;26359;48.750;9.314;2024-03-22T08:13:21;10.20;99.90
40676;DHT22;26359;48.750;9.314;2024-03-22T08:15:47;10.30;99.90
40676;DHT22;26359;48.750;9.314;2024-03-22T08:18:12;10.40;99.90
40676;DHT22;26359;48.750;9.314;2024-03-22T08:20:38;10.50;99.90
40676;DHT22;26359;48.750;9.314;2024-03-22T08:23:05;10.60;99.90
40676;DHT22;26359;48.750;9.314;2024-03-22T08:25:30;10.60;99.90
40676;DHT22;26359;48.750;9.314;2024-03-22T08:27:56;10.80;99.90
40676;DHT22;26359;48.750;9.314;2024-03-22T08:30:23;10.90;99.90
40676;DHT22;26359;48.750;9.314;2024-03-22T08:32:49;11.00;99.90
40676;DHT22;26359;48.750;9.314;2024-03-22T08:35:15;11.00;99.90
40676;DHT22;26359;48.750;9.314;2024-03-22T08:37:40;11.20;99.90
40676;DHT22;26359;48.750;9.314;2024-03-22T08:40:06;11.30;99.90
40676;DHT22;26359;48.750;9.314;2024-03-22T08:42:32;11.50;99.90
40676;DHT22;26359;48.750;9.314;2024-03-22T08:44:58;11.70;99.90
40676;DHT22;26359;48.750;9.314;2024-03-22T08:47:23;11.90;99.90
40676;DHT22;26359;48.750;9.314;2024-03-22T08:49:49;12.00;99.90
40676;DHT22;26359;48.750;9.314;2024-03-22T08:52:15;12.20;99.90
40676;DHT22;26359;48.750;9.314;2024-03-22T08:54:40;12.20;99.90
40676;DHT22;26359;48.750;9.314;2024-03-22T08:57:06;12.40;99.90
40676;DHT22;26359;48.750;9.314;2024-03-22T08:59:32;12.60;99.90
40676;DHT22;26359;48.750;9.314;2024-03-22T09:01:58;12.80;99.90
40676;DHT22;26359;48.750;9.314;2024-03-22T09:04:24;12.90;99.90
40676;DHT22;26359;48.750;9.314;2024-03-22T09:06:50;13.00;99.90
40676;DHT22;26359;48.750;9.314;2024-03-22T09:09:16;13.00;99.90
40676;DHT22;26359;48.750;9.314;2024-03-22T09:11:42;13.10;99.90
40676;DHT22;26359;48.750;9.314;2024-03-22T09:14:07;13.20;99.90
40676;DHT22;26359;48.750;9.314;2024-03-22T09:16:33;13.30;99.90
40676;DHT22;26359;48.750;9.314;2024-03-22T09:18:58;13.30;99.90
40676;DHT22;26359;48.750;9.314;2024-03-22T09:21:24;13.50;99.90
40676;DHT22;26359;48.750;9.314;2024-03-22T09:23:50;13.50;99.90
40676;DHT22;26359;48.750;9.314;2024-03-22T09:26:15;13.60;99.90
40676;DHT22;26359;48.750;9.314;2024-03-22T09:28:41;13.90;99.90
40676;DHT22;26359;48.750;9.314;2024-03-22T09:31:07;14.00;99.90
40676;DHT22;26359;48.750;9.314;2024-03-22T09:33:34;14.20;99.90
40676;DHT22;26359;48.750;9.314;2024-03-22T09:35:59;14.30;99.90
40676;DHT22;26359;48.750;9.314;2024-03-22T09:38:25;14.40;99.90
40676;DHT22;26359;48.750;9.314;2024-03-22T09:40:50;14.60;99.90
40676;DHT22;26359;48.750;9.314;2024-03-22T09:43:22;14.70;99.90
40676;DHT22;26359;48.750;9.314;2024-03-22T09:45:49;14.90;99.90
40676;DHT22;26359;48.750;9.314;2024-03-22T09:48:19;15.00;99.90
40676;DHT22;26359;48.750;9.314;2024-03-22T09:50:48;15.20;99.90
40676;DHT22;26359;48.750;9.314;2024-03-22T09:53:18;15.30;99.90
40676;DHT22;26359;48.750;9.314;2024-03-22T09:55:45;15.40;99.90
40676;DHT22;26359;48.750;9.314;2024-03-22T09:58:15;15.60;99.90
40676;DHT22;26359;48.750;9.314;2024-03-22T10:05:54;16.30;99.90
40676;DHT22;26359;48.750;9.314;2024-03-22T10:08:20;16.50;99.90
40676;DHT22;26359;48.750;9.314;2024-03-22T10:10:46;16.80;99.90
40676;DHT22;26359;48.750;9.314;2024-03-22T10:13:11;17.00;99.90
40676;DHT22;26359;48.750;9.314;2024-03-22T10:15:37;17.40;99.90
40676;DHT22;26359;48.750;9.314;2024-03-22T10:18:04;17.90;99.90
40676;DHT22;26359;48.750;9.314;2024-03-22T10:20:29;18.10;99.90
40676;DHT22;26359;48.750;9.314;2024-03-22T10:22:56;18.50;99.90
40676;DHT22;26359;48.750;9.314;2024-03-22T10:25:23;18.60;99.90
40676;DHT22;26359;48.750;9.314;2024-03-22T10:27:49;18.70;99.90
40676;DHT22;26359;48.750;9.314;2024-03-22T10:30:16;18.70;99.90
40676;DHT22;26359;48.750;9.314;2024-03-22T10:32:45;18.60;99.90
40676;DHT22;26359;48.750;9.314;2024-03-22T10:35:12;18.40;99.90
40676;DHT22;26359;48.750;9.314;2024-03-22T10:37:39;18.40;99.90
40676;DHT22;26359;48.750;9.314;2024-03-22T10:40:19;18.40;99.90
40676;DHT22;26359;48.750;9.314;2024-03-22T10:42:45;18.30;99.90
40676;DHT22;26359;48.750;9.314;2024-03-22T10:45:12;18.20;99.90
40676;DHT22;26359;48.750;9.314;2024-03-22T10:47:38;18.30;99.90
40676;DHT22;26359;48.750;9.314;2024-03-22T10:50:10;18.50;99.90
40676;DHT22;26359;48.750;9.314;2024-03-22T10:52:48;18.70;99.90
40676;DHT22;26359;48.750;9.314;2024-03-22T10:55:24;19.20;99.90
40676;DHT22;26359;48.750;9.314;2024-03-22T10:57:53;19.40;99.90
40676;DHT22;26359;48.750;9.314;2024-03-22T11:00:31;19.30;99.90
40676;DHT22;26359;48.750;9.314;2024-03-22T11:02:57;19.30;99.90
40676;DHT22;26359;48.750;9.314;2024-03-22T11:05:23;19.40;99.90
40676;DHT22;26359;48.750;9.314;2024-03-22T11:08:05;19.50;99.90
40676;DHT22;26359;48.750;9.314;2024-03-22T11:10:33;19.60;99.90
40676;DHT22;26359;48.750;9.314;2024-03-22T11:13:02;19.70;99.90
40676;DHT22;26359;48.750;9.314;2024-03-22T11:15:29;19.60;99.90
40676;DHT22;26359;48.750;9.314;2024-03-22T11:17:55;19.70;99.90
40676;DHT22;26359;48.750;9.314;2024-03-22T11:20:21;20.00;99.90
40676;DHT22;26359;48.750;9.314;2024-03-22T11:22:47;20.10;99.90
40676;DHT22;26359;48.750;9.314;2024-03-22T11:25:12;20.40;99.90
40676;DHT22;26359;48.750;9.314;2024-03-22T11:27:38;20.40;99.90
40676;DHT22;26359;48.750;9.314;2024-03-22T11:30:04;20.30;99.90
40676;DHT22;26359;48.750;9.314;2024-03-22T11:32:30;20.10;99.90
40676;DHT22;26359;48.750;9.314;2024-03-22T11:34:56;20.10;99.90
40676;DHT22;26359;48.750;9.314;2024-03-22T11:37:22;19.90;99.90
40676;DHT22;26359;48.750;9.314;2024-03-22T11:39:48;19.80;99.90
40676;DHT22;26359;48.750;9.314;2024-03-22T11:42:15;19.80;99.90
40676;DHT22;26359;48.750;9.314;2024-03-22T11:44:41;19.70;99.90
40676;DHT22;26359;48.750;9.314;2024-03-22T11:47:07;19.70;99.90
40676;DHT22;26359;48.750;9.314;2024-03-22T11:49:34;19.90;99.90
40676;DHT22;26359;48.750;9.314;2024-03-22T11:52:00;20.00;99.90
40676;DHT22;26359;48.750;9.314;2024-03-22T11:54:26;20.30;99.90
40676;DHT22;26359;48.750;9.314;2024-03-22T11:56:54;20.60;99.90
40676;DHT22;26359;48.750;9.314;2024-03-22T11:59:20;20.90;99.90
40676;DHT22;26359;48.750;9.314;2024-03-22T12:01:47;21.00;99.90
40676;DHT22;26359;48.750;9.314;2024-03-22T12:04:12;21.10;99.90
40676;DHT22;26359;48.750;9.314;2024-03-22T12:06:44;21.20;99.90
40676;DHT22;26359;48.750;9.314;2024-03-22T12:09:11;21.40;99.90
40676;DHT22;26359;48.750;9.314;2024-03-22T12:11:38;21.60;99.90
40676;DHT22;26359;48.750;9.314;2024-03-22T12:14:03;21.70;99.90
40676;DHT22;26359;48.750;9.314;2024-03-22T12:16:29;21.80;99.90
40676;DHT22;26359;48.750;9.314;2024-03-22T12:18:54;21.80;99.90
40676;DHT22;26359;48.750;9.314;2024-03-22T12:21:20;21.70;99.90
40676;DHT22;26359;48.750;9.314;2024-03-22T12:23:45;21.60;99.40
40676;DHT22;26359;48.750;9.314;2024-03-22T12:26:11;21.50;99.90
40676;DHT22;26359;48.750;9.314;2024-03-22T12:28:36;21.30;99.90
40676;DHT22;26359;48.750;9.314;2024-03-22T12:31:02;21.20;99.30
40676;DHT22;26359;48.750;9.314;2024-03-22T12:33:29;21.10;99.70
40676;DHT22;26359;48.750;9.314;2024-03-22T12:35:54;21.10;99.90
40676;DHT22;26359;48.750;9.314;2024-03-22T12:38:20;21.00;99.90
40676;DHT22;26359;48.750;9.314;2024-03-22T12:40:45;21.10;99.90
40676;DHT22;26359;48.750;9.314;2024-03-22T12:43:11;21.10;99.90
40676;DHT22;26359;48.750;9.314;2024-03-22T12:45:37;21.30;99.90
40676;DHT22;26359;48.750;9.314;2024-03-22T12:48:03;21.50;99.90
40676;DHT22;26359;48.750;9.314;2024-03-22T12:50:29;21.50;99.90
40676;DHT22;26359;48.750;9.314;2024-03-22T12:52:55;21.60;99.10
40676;DHT22;26359;48.750;9.314;2024-03-22T12:55:21;21.50;99.70
40676;DHT22;26359;48.750;9.314;2024-03-22T12:57:46;21.00;99.40
40676;DHT22;26359;48.750;9.314;2024-03-22T13:00:13;20.50;99.80
40676;DHT22;26359;48.750;9.314;2024-03-22T13:02:39;20.40;99.90
40676;DHT22;26359;48.750;9.314;2024-03-22T13:05:06;20.30;99.90
40676;DHT22;26359;48.750;9.314;2024-03-22T13:07:31;20.30;99.90
40676;DHT22;26359;48.750;9.314;2024-03-22T13:09:57;20.20;99.80
40676;DHT22;26359;48.750;9.314;2024-03-22T13:12:25;20.20;99.90
40676;DHT22;26359;48.750;9.314;2024-03-22T13:14:51;20.20;99.60
40676;DHT22;26359;48.750;9.314;2024-03-22T13:17:17;20.30;99.90
40676;DHT22;26359;48.750;9.314;2024-03-22T13:19:43;20.40;99.90
40676;DHT22;26359;48.750;9.314;2024-03-22T13:22:08;20.40;99.90
40676;DHT22;26359;48.750;9.314;2024-03-22T13:24:34;20.30;99.90
40676;DHT22;26359;48.750;9.314;2024-03-22T13:27:00;20.40;99.90
40676;DHT22;26359;48.750;9.314;2024-03-22T13:29:26;20.60;99.90
40676;DHT22;26359;48.750;9.314;2024-03-22T13:31:52;20.50;99.40
40676;DHT22;26359;48.750;9.314;2024-03-22T13:34:17;20.50;99.50
40676;DHT22;26359;48.750;9.314;2024-03-22T13:36:43;20.40;99.90
40676;DHT22;26359;48.750;9.314;2024-03-22T13:39:08;20.30;99.90
40676;DHT22;26359;48.750;9.314;2024-03-22T13:41:36;20.30;99.90
40676;DHT22;26359;48.750;9.314;2024-03-22T13:44:01;20.20;99.90
40676;DHT22;26359;48.750;9.314;2024-03-22T13:46:31;20.20;99.90
40676;DHT22;26359;48.750;9.314;2024-03-22T13:49:00;20.20;99.90
40676;DHT22;26359;48.750;9.314;2024-03-22T13:51:25;20.30;99.90
40676;DHT22;26359;48.750;9.314;2024-03-22T13:53:54;20.40;99.30
40676;DHT22;26359;48.750;9.314;2024-03-22T13:56:20;20.30;99.90
40676;DHT22;26359;48.750;9.314;2024-03-22T13:58:46;20.20;99.40
40676;DHT22;26359;48.750;9.314;2024-03-22T14:01:12;20.20;99.90
40676;DHT22;26359;48.750;9.314;2024-03-22T14:03:37;20.30;99.90
40676;DHT22;26359;48.750;9.314;2024-03-22T14:06:03;20.40;99.90
40676;DHT22;26359;48.750;9.314;2024-03-22T14:08:29;20.50;99.60
40676;DHT22;26359;48.750;9.314;2024-03-22T14:10:54;20.60;99.90
40676;DHT22;26359;48.750;9.314;2024-03-22T14:13:20;20.50;99.10
40676;DHT22;26359;48.750;9.314;2024-03-22T14:15:45;20.60;99.90
40676;DHT22;26359;48.750;9.314;2024-03-22T14:18:11;20.70;99.80
40676;DHT22;26359;48.750;9.314;2024-03-22T14:20:36;20.60;99.90
40676;DHT22;26359;48.750;9.314;2024-03-22T14:23:02;20.70;99.50
40676;DHT22;26359;48.750;9.314;2024-03-22T14:25:29;20.60;99.90
40676;DHT22;26359;48.750;9.314;2024-03-22T14:27:56;20.50;99.70
40676;DHT22;26359;48.750;9.314;2024-03-22T14:30:22;20.50;99.90
40676;DHT22;26359;48.750;9.314;2024-03-22T14:32:48;20.50;99.90
40676;DHT22;26359;48.750;9.314;2024-03-22T14:35:15;20.40;99.90
40676;DHT22;26359;48.750;9.314;2024-03-22T14:37:41;20.50;99.90
40676;DHT22;26359;48.750;9.314;2024-03-22T14:40:07;20.50;99.90
40676;DHT22;26359;48.750;9.314;2024-03-22T14:42:36;20.40;99.90
40676;DHT22;26359;48.750;9.314;2024-03-22T14:45:02;20.30;99.90
40676;DHT22;26359;48.750;9.314;2024-03-22T14:47:28;20.20;99.90
40676;DHT22;26359;48.750;9.314;2024-03-22T14:49:54;20.10;99.90
40676;DHT22;26359;48.750;9.314;2024-03-22T14:52:20;20.00;99.90
40676;DHT22;26359;48.750;9.314;2024-03-22T14:54:47;20.00;99.90
40676;DHT22;26359;48.750;9.314;2024-03-22T14:57:12;20.20;99.90
40676;DHT22;26359;48.750;9.314;2024-03-22T14:59:38;20.20;99.90
40676;DHT22;26359;48.750;9.314;2024-03-22T15:02:04;20.20;99.90
40676;DHT22;26359;48.750;9.314;2024-03-22T15:04:29;20.10;99.90
40676;DHT22;26359;48.750;9.314;2024-03-22T15:06:55;20.00;99.90
40676;DHT22;26359;48.750;9.314;2024-03-22T15:09:20;20.00;99.90
40676;DHT22;26359;48.750;9.314;2024-03-22T15:11:46;19.90;99.90
40676;DHT22;26359;48.750;9.314;2024-03-22T15:14:12;19.70;99.90
40676;DHT22;26359;48.750;9.314;2024-03-22T15:16:41;19.60;99.90
40676;DHT22;26359;48.750;9.314;2024-03-22T15:19:10;19.60;99.90
40676;DHT22;26359;48.750;9.314;2024-03-22T15:21:37;19.60;99.90
40676;DHT22;26359;48.750;9.314;2024-03-22T15:24:03;19.50;99.90
40676;DHT22;26359;48.750;9.314;2024-03-22T15:26:29;19.50;99.90
40676;DHT22;26359;48.750;9.314;2024-03-22T15:28:54;19.50;99.90
40676;DHT22;26359;48.750;9.314;2024-03-22T15:31:20;19.30;99.90
40676;DHT22;26359;48.750;9.314;2024-03-22T15:33:45;19.20;99.90
40676;DHT22;26359;48.750;9.314;2024-03-22T15:36:11;19.10;99.90
40676;DHT22;26359;48.750;9.314;2024-03-22T15:38:36;19.00;99.90